createdAt,value
2017-01-28T00:00:11.019Z,0
2017-01-28T00:01:11.452Z,0
2017-01-28T00:02:11.740Z,0
2017-01-28T00:03:12.032Z,0
2017-01-28T00:04:10.422Z,0
2017-01-28T00:05:10.582Z,0
2017-01-28T00:06:12.179Z,0
2017-01-28T00:07:10.964Z,0
2017-01-28T00:08:11.768Z,0
2017-01-28T00:09:12.458Z,0
2017-01-28T00:10:12.374Z,0
2017-01-28T00:11:12.245Z,0
2017-01-28T00:12:10.903Z,0
2017-01-28T00:13:10.394Z,0
2017-01-28T00:14:11.476Z,0
2017-01-28T00:15:12.918Z,0
2017-01-28T00:16:10.542Z,0
2017-01-28T00:17:11.140Z,0
2017-01-28T00:18:12.664Z,0
2017-01-28T00:19:11.487Z,0
2017-01-28T00:20:11.639Z,0
2017-01-28T00:21:12.176Z,0
2017-01-28T00:22:10.714Z,0
2017-01-28T00:23:10.368Z,0
2017-01-28T00:24:11.557Z,0
2017-01-28T00:25:12.741Z,0
2017-01-28T00:26:11.998Z,0
2017-01-28T00:27:11.971Z,0
2017-01-28T00:28:11.938Z,0
2017-01-28T00:29:11.573Z,0
2017-01-28T00:30:12.545Z,0
2017-01-28T00:31:12.242Z,0
2017-01-28T00:32:11.807Z,0
2017-01-28T00:33:11.819Z,0
2017-01-28T00:34:10.388Z,0
2017-01-28T00:35:12.028Z,0
2017-01-28T00:36:10.890Z,0
2017-01-28T00:37:11.966Z,0
2017-01-28T00:38:12.832Z,0
2017-01-28T00:39:12.304Z,0
2017-01-28T00:40:12.177Z,0
2017-01-28T00:41:11.299Z,0
2017-01-28T00:42:12.946Z,0
2017-01-28T00:43:11.968Z,0
2017-01-28T00:44:13.073Z,0
2017-01-28T00:45:12.123Z,0
2017-01-28T00:46:11.700Z,0
2017-01-28T00:47:11.783Z,0
2017-01-28T00:48:13.845Z,0
2017-01-28T00:49:10.953Z,0
2017-01-28T00:50:11.223Z,0
2017-01-28T00:51:11.635Z,0
2017-01-28T00:52:12.029Z,0
2017-01-28T00:53:11.883Z,0
2017-01-28T00:54:12.824Z,0
2017-01-28T00:55:12.380Z,0
2017-01-28T00:56:12.294Z,0
2017-01-28T00:57:09.934Z,0
2017-01-28T00:58:11.020Z,0
2017-01-28T00:59:14.111Z,0
2017-01-28T01:00:11.811Z,0
2017-01-28T01:01:11.796Z,0
2017-01-28T01:02:12.023Z,0
2017-01-28T01:03:12.495Z,0
2017-01-28T01:04:12.147Z,0
2017-01-28T01:05:12.203Z,0
2017-01-28T01:06:12.986Z,0
2017-01-28T01:07:12.089Z,0
2017-01-28T01:08:12.935Z,0
2017-01-28T01:09:11.086Z,0
2017-01-28T01:10:11.725Z,0
2017-01-28T01:11:11.574Z,0
2017-01-28T01:12:13.109Z,0
2017-01-28T01:13:11.643Z,0
2017-01-28T01:14:12.825Z,0
2017-01-28T01:15:12.849Z,0
2017-01-28T01:16:13.902Z,0
2017-01-28T01:17:12.231Z,0
2017-01-28T01:18:12.584Z,0
2017-01-28T01:19:12.458Z,0
2017-01-28T01:20:11.741Z,0
2017-01-28T01:21:11.740Z,0
2017-01-28T01:22:11.687Z,0
2017-01-28T01:23:12.478Z,0
2017-01-28T01:24:12.500Z,0
2017-01-28T01:25:11.680Z,0
2017-01-28T01:26:13.616Z,0
2017-01-28T01:27:12.551Z,0
2017-01-28T01:28:13.447Z,0
2017-01-28T01:29:11.744Z,0
2017-01-28T01:30:12.688Z,0
2017-01-28T01:31:12.556Z,0
2017-01-28T01:32:14.106Z,0
2017-01-28T01:33:15.416Z,0
2017-01-28T01:34:12.586Z,0
2017-01-28T01:35:12.162Z,0
2017-01-28T01:36:14.000Z,0
2017-01-28T01:37:11.758Z,0
2017-01-28T01:38:12.657Z,0
2017-01-28T01:39:12.982Z,0
2017-01-28T01:40:11.798Z,0
2017-01-28T01:41:12.493Z,0
2017-01-28T01:42:12.472Z,0
2017-01-28T01:43:13.067Z,0
2017-01-28T01:44:12.728Z,0
2017-01-28T01:45:13.607Z,0
2017-01-28T01:46:12.703Z,0
2017-01-28T01:47:11.806Z,0
2017-01-28T01:48:11.199Z,0
2017-01-28T01:49:12.528Z,0
2017-01-28T01:50:11.869Z,0
2017-01-28T01:51:12.188Z,0
2017-01-28T01:52:12.441Z,0
2017-01-28T01:53:11.656Z,0
2017-01-28T01:54:12.231Z,0
2017-01-28T01:55:12.301Z,0
2017-01-28T01:56:13.177Z,0
2017-01-28T01:57:12.490Z,0
2017-01-28T01:58:13.948Z,0
2017-01-28T01:59:13.176Z,0
2017-01-28T02:00:13.831Z,0
2017-01-28T02:01:13.335Z,0
2017-01-28T02:02:13.071Z,0
2017-01-28T02:03:14.341Z,0
2017-01-28T02:04:12.124Z,0
2017-01-28T02:05:12.533Z,0
2017-01-28T02:06:12.476Z,0
2017-01-28T02:07:13.579Z,0
2017-01-28T02:08:11.849Z,0
2017-01-28T02:09:12.827Z,0
2017-01-28T02:10:12.333Z,0
2017-01-28T02:11:12.319Z,0
2017-01-28T02:12:14.626Z,0
2017-01-28T02:13:13.892Z,0
2017-01-28T02:14:12.386Z,0
2017-01-28T02:15:11.992Z,0
2017-01-28T02:16:12.995Z,0
2017-01-28T02:17:12.524Z,0
2017-01-28T02:18:12.595Z,0
2017-01-28T02:19:12.763Z,0
2017-01-28T02:20:11.976Z,0
2017-01-28T02:21:14.269Z,0
2017-01-28T02:22:14.361Z,0
2017-01-28T02:23:13.118Z,0
2017-01-28T02:24:14.181Z,0
2017-01-28T02:25:13.126Z,0
2017-01-28T02:26:13.066Z,0
2017-01-28T02:27:13.022Z,0
2017-01-28T02:28:11.944Z,0
2017-01-28T02:29:13.728Z,0
2017-01-28T02:30:14.031Z,0
2017-01-28T02:31:12.643Z,0
2017-01-28T02:32:13.048Z,0
2017-01-28T02:33:12.591Z,0
2017-01-28T02:34:13.632Z,0
2017-01-28T02:35:12.949Z,0
2017-01-28T02:36:12.630Z,0
2017-01-28T02:37:12.799Z,0
2017-01-28T02:38:12.555Z,0
2017-01-28T02:39:12.309Z,0
2017-01-28T02:40:14.939Z,0
2017-01-28T02:41:13.007Z,0
2017-01-28T02:42:13.920Z,0
2017-01-28T02:43:13.814Z,0
2017-01-28T02:44:13.670Z,0
2017-01-28T02:45:13.001Z,0
2017-01-28T02:46:13.375Z,0
2017-01-28T02:47:14.014Z,0
2017-01-28T02:48:11.975Z,0
2017-01-28T02:49:14.019Z,0
2017-01-28T02:50:14.443Z,0
2017-01-28T02:51:14.413Z,0
2017-01-28T02:52:14.496Z,0
2017-01-28T02:53:12.193Z,0
2017-01-28T02:54:12.964Z,0
2017-01-28T02:55:15.116Z,0
2017-01-28T02:56:12.264Z,0
2017-01-28T02:57:13.679Z,0
2017-01-28T02:58:12.523Z,0
2017-01-28T02:59:13.649Z,0
2017-01-28T03:00:14.690Z,0
2017-01-28T03:01:12.634Z,0
2017-01-28T03:02:13.664Z,0
2017-01-28T03:03:11.879Z,0
2017-01-28T03:04:11.819Z,0
2017-01-28T03:05:14.076Z,0
2017-01-28T03:06:14.269Z,0
2017-01-28T03:07:14.557Z,0
2017-01-28T03:08:12.655Z,0
2017-01-28T03:09:12.855Z,0
2017-01-28T03:10:14.597Z,0
2017-01-28T03:11:12.247Z,0
2017-01-28T03:12:14.109Z,0
2017-01-28T03:13:12.707Z,0
2017-01-28T03:14:13.524Z,0
2017-01-28T03:15:13.704Z,0
2017-01-28T03:16:14.031Z,0
2017-01-28T03:17:13.865Z,0
2017-01-28T03:18:14.248Z,0
2017-01-28T03:19:13.134Z,0
2017-01-28T03:20:13.490Z,0
2017-01-28T03:21:12.536Z,0
2017-01-28T03:22:13.991Z,0
2017-01-28T03:23:13.410Z,0
2017-01-28T03:24:13.477Z,0
2017-01-28T03:25:14.406Z,0
2017-01-28T03:26:12.726Z,0
2017-01-28T03:27:13.436Z,0
2017-01-28T03:28:12.916Z,0
2017-01-28T03:29:13.461Z,0
2017-01-28T03:30:13.931Z,0
2017-01-28T03:31:13.878Z,0
2017-01-28T03:32:13.019Z,0
2017-01-28T03:33:13.547Z,0
2017-01-28T03:34:11.985Z,0
2017-01-28T03:35:14.268Z,0
2017-01-28T03:36:14.042Z,0
2017-01-28T03:37:13.857Z,0
2017-01-28T03:38:14.115Z,0
2017-01-28T03:39:14.304Z,0
2017-01-28T03:40:13.926Z,0
2017-01-28T03:41:14.182Z,0
2017-01-28T03:42:13.375Z,0
2017-01-28T03:43:14.384Z,0
2017-01-28T03:44:12.719Z,0
2017-01-28T03:45:15.146Z,0
2017-01-28T03:46:12.400Z,0
2017-01-28T03:47:12.995Z,0
2017-01-28T03:48:14.236Z,0
2017-01-28T03:49:14.362Z,0
2017-01-28T03:50:14.163Z,0
2017-01-28T03:51:13.197Z,0
2017-01-28T03:52:13.692Z,0
2017-01-28T03:53:13.536Z,0
2017-01-28T03:54:14.504Z,0
2017-01-28T03:55:13.392Z,0
2017-01-28T03:56:13.838Z,0
2017-01-28T03:57:14.696Z,0
2017-01-28T03:58:14.295Z,0
2017-01-28T03:59:14.275Z,0
2017-01-28T04:00:11.886Z,0
2017-01-28T04:01:14.027Z,0
2017-01-28T04:02:12.680Z,0
2017-01-28T04:03:14.022Z,0
2017-01-28T04:04:14.637Z,0
2017-01-28T04:05:14.598Z,0
2017-01-28T04:06:15.296Z,0
2017-01-28T04:07:14.109Z,0
2017-01-28T04:08:14.308Z,0
2017-01-28T04:09:14.647Z,0
2017-01-28T04:10:13.402Z,0
2017-01-28T04:11:14.048Z,0
2017-01-28T04:12:14.280Z,0
2017-01-28T04:13:14.862Z,0
2017-01-28T04:14:14.678Z,0
2017-01-28T04:15:14.466Z,0
2017-01-28T04:16:14.200Z,0
2017-01-28T04:17:14.382Z,0
2017-01-28T04:18:14.400Z,0
2017-01-28T04:19:14.875Z,0
2017-01-28T04:20:14.427Z,0
2017-01-28T04:21:14.354Z,0
2017-01-28T04:22:14.656Z,0
2017-01-28T04:23:15.133Z,0
2017-01-28T04:24:15.731Z,0
2017-01-28T04:25:14.686Z,0
2017-01-28T04:26:14.660Z,0
2017-01-28T04:27:15.611Z,0
2017-01-28T04:28:14.864Z,0
2017-01-28T04:29:14.388Z,0
2017-01-28T04:30:15.268Z,0
2017-01-28T04:31:14.556Z,0
2017-01-28T04:32:15.047Z,0
2017-01-28T04:33:14.689Z,0
2017-01-28T04:34:15.045Z,0
2017-01-28T04:35:15.816Z,0
2017-01-28T04:36:13.904Z,0
2017-01-28T04:37:13.990Z,0
2017-01-28T04:38:13.871Z,0
2017-01-28T04:39:14.364Z,0
2017-01-28T04:40:14.203Z,0
2017-01-28T04:41:14.821Z,0
2017-01-28T04:42:15.708Z,0
2017-01-28T04:43:14.692Z,0
2017-01-28T04:44:15.687Z,0
2017-01-28T04:45:13.753Z,0
2017-01-28T04:46:14.462Z,0
2017-01-28T04:47:16.001Z,0
2017-01-28T04:48:13.778Z,0
2017-01-28T04:49:13.425Z,0
2017-01-28T04:50:15.163Z,0
2017-01-28T04:51:16.422Z,0
2017-01-28T04:52:14.549Z,0
2017-01-28T04:53:14.464Z,0
2017-01-28T04:54:14.634Z,0
2017-01-28T04:55:13.657Z,0
2017-01-28T04:56:14.964Z,0
2017-01-28T04:57:13.663Z,0
2017-01-28T04:58:16.037Z,0
2017-01-28T04:59:14.113Z,0
2017-01-28T05:00:14.243Z,0
2017-01-28T05:01:13.726Z,0
2017-01-28T05:02:15.111Z,0
2017-01-28T05:03:13.756Z,0
2017-01-28T05:04:13.351Z,0
2017-01-28T05:05:14.076Z,0
2017-01-28T05:06:15.225Z,0
2017-01-28T05:07:15.861Z,0
2017-01-28T05:08:14.777Z,0
2017-01-28T05:09:15.959Z,0
2017-01-28T05:10:15.362Z,0
2017-01-28T05:11:14.673Z,0
2017-01-28T05:12:15.097Z,0
2017-01-28T05:13:15.085Z,0
2017-01-28T05:14:15.818Z,0
2017-01-28T05:15:14.534Z,0
2017-01-28T05:16:14.328Z,0
2017-01-28T05:17:15.955Z,0
2017-01-28T05:18:13.468Z,0
2017-01-28T05:19:13.059Z,0
2017-01-28T05:20:14.415Z,0
2017-01-28T05:21:14.787Z,0
2017-01-28T05:22:15.307Z,0
2017-01-28T05:23:14.063Z,0
2017-01-28T05:24:14.986Z,0
2017-01-28T05:25:14.195Z,0
2017-01-28T05:26:17.961Z,0
2017-01-28T05:27:14.356Z,0
2017-01-28T05:28:14.559Z,0
2017-01-28T05:29:15.182Z,0
2017-01-28T05:30:14.139Z,0
2017-01-28T05:31:14.259Z,0
2017-01-28T05:32:15.637Z,0
2017-01-28T05:33:14.766Z,0
2017-01-28T05:34:15.089Z,0
2017-01-28T05:35:15.999Z,0
2017-01-28T05:36:15.172Z,0
2017-01-28T05:37:15.128Z,0
2017-01-28T05:38:15.845Z,0
2017-01-28T05:39:14.813Z,0
2017-01-28T05:40:14.723Z,0
2017-01-28T05:41:17.119Z,0
2017-01-28T05:42:15.252Z,0
2017-01-28T05:43:14.705Z,0
2017-01-28T05:44:14.897Z,0
2017-01-28T05:45:15.606Z,0
2017-01-28T05:46:14.073Z,0
2017-01-28T05:47:14.709Z,0
2017-01-28T05:48:15.148Z,0
2017-01-28T05:49:16.044Z,0
2017-01-28T05:50:16.061Z,0
2017-01-28T05:51:15.654Z,0
2017-01-28T05:52:14.598Z,0
2017-01-28T05:53:15.978Z,0
2017-01-28T05:54:14.221Z,0
2017-01-28T05:55:15.316Z,0
2017-01-28T05:56:15.762Z,0
2017-01-28T05:57:15.454Z,0
2017-01-28T05:58:14.875Z,0
2017-01-28T05:59:15.193Z,0
2017-01-28T06:00:16.561Z,0
2017-01-28T06:01:14.538Z,0
2017-01-28T06:02:14.755Z,0
2017-01-28T06:03:16.255Z,0
2017-01-28T06:04:16.117Z,0
2017-01-28T06:05:15.328Z,0
2017-01-28T06:06:15.614Z,0
2017-01-28T06:07:15.631Z,0
2017-01-28T06:08:18.107Z,0
2017-01-28T06:09:15.988Z,0
2017-01-28T06:10:14.896Z,0
2017-01-28T06:11:16.075Z,0
2017-01-28T06:12:14.812Z,0
2017-01-28T06:13:16.112Z,0
2017-01-28T06:14:15.578Z,0
2017-01-28T06:15:14.266Z,0
2017-01-28T06:16:15.090Z,0
2017-01-28T06:17:15.311Z,0
2017-01-28T06:18:15.026Z,0
2017-01-28T06:19:14.049Z,0
2017-01-28T06:20:15.423Z,0
2017-01-28T06:21:16.021Z,0
2017-01-28T06:22:16.769Z,0
2017-01-28T06:23:15.499Z,0
2017-01-28T06:24:14.809Z,0
2017-01-28T06:25:15.485Z,0
2017-01-28T06:26:15.821Z,0
2017-01-28T06:27:16.278Z,0
2017-01-28T06:28:14.744Z,0
2017-01-28T06:29:14.113Z,0
2017-01-28T06:30:14.827Z,0
2017-01-28T06:31:16.115Z,0
2017-01-28T06:32:15.940Z,0
2017-01-28T06:33:17.445Z,0
2017-01-28T06:34:14.692Z,0
2017-01-28T06:35:13.587Z,0
2017-01-28T06:36:16.199Z,0
2017-01-28T06:37:14.166Z,0
2017-01-28T06:38:13.679Z,0
2017-01-28T06:39:17.357Z,0
2017-01-28T06:40:16.306Z,0
2017-01-28T06:41:16.844Z,0
2017-01-28T06:42:15.711Z,0
2017-01-28T06:43:17.135Z,0
2017-01-28T06:44:15.464Z,0
2017-01-28T06:45:15.511Z,0
2017-01-28T06:46:14.331Z,0
2017-01-28T06:47:14.980Z,0
2017-01-28T06:48:15.295Z,0
2017-01-28T06:49:15.827Z,0
2017-01-28T06:50:15.062Z,0
2017-01-28T06:51:16.296Z,0
2017-01-28T06:52:14.616Z,5
2017-01-28T06:53:14.199Z,5
2017-01-28T06:54:16.412Z,5
2017-01-28T06:55:15.182Z,5
2017-01-28T06:56:16.877Z,5
2017-01-28T06:57:17.150Z,5
2017-01-28T06:58:15.500Z,5
2017-01-28T06:59:14.919Z,5
2017-01-28T07:00:15.192Z,10
2017-01-28T07:01:16.611Z,10
2017-01-28T07:02:14.858Z,10
2017-01-28T07:03:16.378Z,10
2017-01-28T07:04:15.075Z,10
2017-01-28T07:05:16.545Z,15
2017-01-28T07:06:15.691Z,15
2017-01-28T07:07:16.329Z,15
2017-01-28T07:08:15.970Z,15
2017-01-28T07:09:17.061Z,20
2017-01-28T07:10:16.067Z,20
2017-01-28T07:11:15.587Z,20
2017-01-28T07:12:16.101Z,25
2017-01-28T07:13:16.793Z,25
2017-01-28T07:14:15.179Z,25
2017-01-28T07:15:15.757Z,30
2017-01-28T07:16:15.328Z,30
2017-01-28T07:17:16.887Z,30
2017-01-28T07:18:15.128Z,35
2017-01-28T07:19:14.953Z,35
2017-01-28T07:20:16.722Z,40
2017-01-28T07:21:15.179Z,40
2017-01-28T07:22:14.650Z,40
2017-01-28T07:23:16.410Z,45
2017-01-28T07:24:16.168Z,45
2017-01-28T07:25:16.180Z,50
2017-01-28T07:26:15.444Z,50
2017-01-28T07:27:15.796Z,50
2017-01-28T07:28:16.350Z,55
2017-01-28T07:29:15.829Z,55
2017-01-28T07:30:15.255Z,60
2017-01-28T07:31:16.166Z,65
2017-01-28T07:32:15.753Z,65
2017-01-28T07:33:16.237Z,70
2017-01-28T07:34:15.280Z,75
2017-01-28T07:35:15.094Z,75
2017-01-28T07:36:15.660Z,80
2017-01-28T07:37:16.073Z,80
2017-01-28T07:38:16.823Z,85
2017-01-28T07:39:16.312Z,85
2017-01-28T07:40:15.625Z,90
2017-01-28T07:41:15.881Z,95
2017-01-28T07:42:15.386Z,95
2017-01-28T07:43:15.810Z,100
2017-01-28T07:44:16.174Z,100
2017-01-28T07:45:15.198Z,100
2017-01-28T07:46:14.832Z,100
2017-01-28T07:47:15.119Z,105
2017-01-28T07:48:15.726Z,105
2017-01-28T07:49:15.900Z,105
2017-01-28T07:50:16.058Z,110
2017-01-28T07:51:16.322Z,110
2017-01-28T07:52:18.065Z,115
2017-01-28T07:53:16.952Z,120
2017-01-28T07:54:14.857Z,120
2017-01-28T07:55:15.141Z,120
2017-01-28T07:56:15.377Z,125
2017-01-28T07:57:16.686Z,120
2017-01-28T07:58:17.531Z,125
2017-01-28T07:59:15.160Z,135
2017-01-28T08:00:15.851Z,140
2017-01-28T08:01:15.501Z,145
2017-01-28T08:02:14.442Z,145
2017-01-28T08:03:15.526Z,150
2017-01-28T08:04:17.244Z,155
2017-01-28T08:05:16.761Z,155
2017-01-28T08:06:15.725Z,160
2017-01-28T08:07:17.531Z,160
2017-01-28T08:08:16.783Z,165
2017-01-28T08:09:16.976Z,170
2017-01-28T08:10:16.409Z,170
2017-01-28T08:11:13.545Z,170
2017-01-28T08:12:14.584Z,175
2017-01-28T08:13:15.184Z,175
2017-01-28T08:14:14.547Z,175
2017-01-28T08:15:14.499Z,175
2017-01-28T08:16:17.463Z,180
2017-01-28T08:17:16.480Z,190
2017-01-28T08:18:18.087Z,185
2017-01-28T08:19:17.675Z,185
2017-01-28T08:20:17.493Z,185
2017-01-28T08:21:17.206Z,180
2017-01-28T08:22:16.830Z,165
2017-01-28T08:23:17.115Z,170
2017-01-28T08:24:17.744Z,175
2017-01-28T08:25:17.311Z,185
2017-01-28T08:26:16.725Z,190
2017-01-28T08:27:17.731Z,195
2017-01-28T08:28:18.796Z,195
2017-01-28T08:29:15.197Z,200
2017-01-28T08:30:16.222Z,205
2017-01-28T08:31:17.110Z,210
2017-01-28T08:32:14.605Z,215
2017-01-28T08:33:15.297Z,215
2017-01-28T08:34:16.713Z,220
2017-01-28T08:35:16.654Z,225
2017-01-28T08:36:16.957Z,220
2017-01-28T08:37:16.181Z,215
2017-01-28T08:38:16.586Z,225
2017-01-28T08:39:16.402Z,235
2017-01-28T08:40:18.604Z,230
2017-01-28T08:41:17.179Z,230
2017-01-28T08:42:17.048Z,230
2017-01-28T08:43:16.192Z,240
2017-01-28T08:44:15.148Z,260
2017-01-28T08:45:16.342Z,265
2017-01-28T08:46:17.002Z,270
2017-01-28T08:47:17.172Z,265
2017-01-28T08:48:15.368Z,265
2017-01-28T08:49:16.358Z,270
2017-01-28T08:50:16.124Z,270
2017-01-28T08:51:17.004Z,270
2017-01-28T08:52:16.786Z,275
2017-01-28T08:53:17.302Z,275
2017-01-28T08:54:17.496Z,280
2017-01-28T08:55:16.544Z,280
2017-01-28T08:56:16.212Z,285
2017-01-28T08:57:17.048Z,285
2017-01-28T08:58:17.873Z,285
2017-01-28T08:59:17.359Z,285
2017-01-28T09:00:15.937Z,280
2017-01-28T09:01:17.098Z,295
2017-01-28T09:02:17.043Z,300
2017-01-28T09:03:15.978Z,295
2017-01-28T09:04:15.010Z,300
2017-01-28T09:05:15.434Z,310
2017-01-28T09:06:17.978Z,315
2017-01-28T09:07:17.369Z,320
2017-01-28T09:08:16.554Z,315
2017-01-28T09:09:16.927Z,320
2017-01-28T09:10:16.307Z,325
2017-01-28T09:11:15.834Z,325
2017-01-28T09:12:17.376Z,325
2017-01-28T09:13:16.693Z,320
2017-01-28T09:14:15.842Z,325
2017-01-28T09:15:16.774Z,320
2017-01-28T09:16:18.297Z,325
2017-01-28T09:17:17.722Z,305
2017-01-28T09:18:16.871Z,300
2017-01-28T09:19:15.560Z,305
2017-01-28T09:20:17.553Z,305
2017-01-28T09:21:17.577Z,305
2017-01-28T09:22:17.716Z,315
2017-01-28T09:23:18.297Z,310
2017-01-28T09:24:16.564Z,310
2017-01-28T09:25:16.483Z,315
2017-01-28T09:26:16.611Z,305
2017-01-28T09:27:17.732Z,305
2017-01-28T09:28:17.375Z,300
2017-01-28T09:29:17.232Z,300
2017-01-28T09:30:15.783Z,285
2017-01-28T09:31:17.406Z,280
2017-01-28T09:32:17.092Z,275
2017-01-28T09:33:17.837Z,275
2017-01-28T09:34:18.596Z,270
2017-01-28T09:35:17.823Z,270
2017-01-28T09:36:17.904Z,275
2017-01-28T09:37:17.331Z,275
2017-01-28T09:38:18.302Z,285
2017-01-28T09:39:17.524Z,295
2017-01-28T09:40:16.953Z,305
2017-01-28T09:41:16.580Z,305
2017-01-28T09:42:18.089Z,305
2017-01-28T09:43:17.758Z,310
2017-01-28T09:44:16.484Z,305
2017-01-28T09:45:17.101Z,310
2017-01-28T09:46:16.598Z,310
2017-01-28T09:47:17.662Z,310
2017-01-28T09:48:16.283Z,305
2017-01-28T09:49:17.280Z,310
2017-01-28T09:50:17.417Z,305
2017-01-28T09:51:17.284Z,305
2017-01-28T09:52:18.616Z,305
2017-01-28T09:53:17.626Z,300
2017-01-28T09:54:17.159Z,300
2017-01-28T09:55:17.023Z,300
2017-01-28T09:56:18.533Z,290
2017-01-28T09:57:18.238Z,295
2017-01-28T09:58:17.606Z,295
2017-01-28T09:59:17.566Z,305
2017-01-28T10:00:17.599Z,310
2017-01-28T10:01:19.084Z,315
2017-01-28T10:02:17.527Z,325
2017-01-28T10:03:19.398Z,330
2017-01-28T10:04:18.878Z,330
2017-01-28T10:05:17.586Z,325
2017-01-28T10:06:17.543Z,330
2017-01-28T10:07:17.703Z,330
2017-01-28T10:08:16.721Z,340
2017-01-28T10:09:18.023Z,340
2017-01-28T10:10:17.563Z,340
2017-01-28T10:11:18.184Z,340
2017-01-28T10:12:17.750Z,345
2017-01-28T10:13:17.437Z,345
2017-01-28T10:14:16.600Z,345
2017-01-28T10:15:16.674Z,345
2017-01-28T10:16:17.583Z,345
2017-01-28T10:17:17.830Z,345
2017-01-28T10:18:19.231Z,345
2017-01-28T10:19:18.169Z,345
2017-01-28T10:20:16.545Z,350
2017-01-28T10:21:16.038Z,345
2017-01-28T10:22:18.821Z,345
2017-01-28T10:23:16.489Z,345
2017-01-28T10:24:18.374Z,345
2017-01-28T10:25:18.344Z,345
2017-01-28T10:26:18.679Z,345
2017-01-28T10:27:18.063Z,345
2017-01-28T10:28:16.998Z,345
2017-01-28T10:29:18.309Z,345
2017-01-28T10:30:19.230Z,350
2017-01-28T10:31:18.231Z,350
2017-01-28T10:32:18.075Z,350
2017-01-28T10:33:16.272Z,350
2017-01-28T10:34:17.046Z,355
2017-01-28T10:35:18.016Z,355
2017-01-28T10:36:18.724Z,355
2017-01-28T10:37:17.430Z,355
2017-01-28T10:38:19.162Z,355
2017-01-28T10:39:18.965Z,360
2017-01-28T10:40:18.186Z,365
2017-01-28T10:41:17.732Z,365
2017-01-28T10:42:17.705Z,365
2017-01-28T10:43:18.160Z,365
2017-01-28T10:44:18.613Z,365
2017-01-28T10:45:18.620Z,365
2017-01-28T10:46:17.172Z,370
2017-01-28T10:47:17.283Z,375
2017-01-28T10:48:17.673Z,380
2017-01-28T10:49:18.804Z,370
2017-01-28T10:50:18.092Z,370
2017-01-28T10:51:18.255Z,375
2017-01-28T10:52:17.443Z,370
2017-01-28T10:53:18.136Z,370
2017-01-28T10:54:19.423Z,370
2017-01-28T10:55:17.965Z,370
2017-01-28T10:56:18.268Z,370
2017-01-28T10:57:18.968Z,370
2017-01-28T10:58:17.698Z,365
2017-01-28T10:59:18.762Z,365
2017-01-28T11:00:19.571Z,360
2017-01-28T11:01:17.718Z,355
2017-01-28T11:02:18.173Z,365
2017-01-28T11:03:19.220Z,365
2017-01-28T11:04:19.523Z,360
2017-01-28T11:05:18.258Z,360
2017-01-28T11:06:18.418Z,360
2017-01-28T11:07:18.951Z,360
2017-01-28T11:08:18.413Z,360
2017-01-28T11:09:19.052Z,355
2017-01-28T11:10:18.176Z,355
2017-01-28T11:11:17.976Z,360
2017-01-28T11:12:19.986Z,360
2017-01-28T11:13:18.242Z,355
2017-01-28T11:14:17.891Z,355
2017-01-28T11:15:20.224Z,350
2017-01-28T11:16:18.070Z,355
2017-01-28T11:17:17.602Z,345
2017-01-28T11:18:17.757Z,340
2017-01-28T11:19:18.217Z,345
2017-01-28T11:20:18.120Z,345
2017-01-28T11:21:18.081Z,345
2017-01-28T11:22:18.975Z,340
2017-01-28T11:23:19.239Z,340
2017-01-28T11:24:18.607Z,335
2017-01-28T11:25:19.228Z,340
2017-01-28T11:26:18.228Z,340
2017-01-28T11:27:18.907Z,340
2017-01-28T11:28:18.689Z,340
2017-01-28T11:29:18.395Z,340
2017-01-28T11:30:19.766Z,340
2017-01-28T11:31:17.922Z,340
2017-01-28T11:32:18.754Z,345
2017-01-28T11:33:20.358Z,345
2017-01-28T11:34:18.997Z,340
2017-01-28T11:35:20.410Z,345
2017-01-28T11:36:20.663Z,340
2017-01-28T11:37:19.956Z,335
2017-01-28T11:38:18.431Z,330
2017-01-28T11:39:19.558Z,340
2017-01-28T11:40:18.858Z,340
2017-01-28T11:41:19.081Z,340
2017-01-28T11:42:19.605Z,345
2017-01-28T11:43:18.383Z,345
2017-01-28T11:44:17.609Z,345
2017-01-28T11:45:19.108Z,345
2017-01-28T11:46:18.743Z,350
2017-01-28T11:47:19.412Z,350
2017-01-28T11:48:18.004Z,350
2017-01-28T11:49:17.680Z,350
2017-01-28T11:50:19.346Z,350
2017-01-28T11:51:19.328Z,350
2017-01-28T11:52:18.257Z,350
2017-01-28T11:53:19.313Z,350
2017-01-28T11:54:19.209Z,350
2017-01-28T11:55:18.551Z,350
2017-01-28T11:56:19.237Z,350
2017-01-28T11:57:19.307Z,345
2017-01-28T11:58:19.883Z,345
2017-01-28T11:59:18.167Z,335
2017-01-28T12:00:18.837Z,335
2017-01-28T12:01:18.459Z,330
2017-01-28T12:02:18.763Z,330
2017-01-28T12:03:17.627Z,335
2017-01-28T12:04:18.953Z,340
2017-01-28T12:05:18.615Z,335
2017-01-28T12:06:19.029Z,340
2017-01-28T12:07:18.762Z,340
2017-01-28T12:08:18.363Z,310
2017-01-28T12:09:18.895Z,330
2017-01-28T12:10:18.310Z,335
2017-01-28T12:11:20.194Z,340
2017-01-28T12:12:19.004Z,345
2017-01-28T12:13:18.294Z,345
2017-01-28T12:14:20.272Z,345
2017-01-28T12:15:19.283Z,345
2017-01-28T12:16:18.883Z,350
2017-01-28T12:17:21.017Z,355
2017-01-28T12:18:17.933Z,355
2017-01-28T12:19:19.357Z,360
2017-01-28T12:20:19.987Z,360
2017-01-28T12:21:19.784Z,360
2017-01-28T12:22:19.114Z,365
2017-01-28T12:23:18.264Z,365
2017-01-28T12:24:19.997Z,365
2017-01-28T12:25:19.177Z,365
2017-01-28T12:26:20.128Z,360
2017-01-28T12:27:18.731Z,360
2017-01-28T12:28:20.792Z,360
2017-01-28T12:29:19.107Z,350
2017-01-28T12:30:19.542Z,350
2017-01-28T12:31:20.188Z,350
2017-01-28T12:32:18.021Z,345
2017-01-28T12:33:19.943Z,345
2017-01-28T12:34:18.081Z,345
2017-01-28T12:35:19.930Z,350
2017-01-28T12:36:19.946Z,345
2017-01-28T12:37:20.358Z,340
2017-01-28T12:38:19.034Z,330
2017-01-28T12:39:19.468Z,325
2017-01-28T12:40:18.993Z,325
2017-01-28T12:41:20.462Z,325
2017-01-28T12:42:20.488Z,325
2017-01-28T12:43:20.741Z,330
2017-01-28T12:44:20.454Z,335
2017-01-28T12:45:20.856Z,325
2017-01-28T12:46:20.299Z,330
2017-01-28T12:47:19.181Z,330
2017-01-28T12:48:18.752Z,325
2017-01-28T12:49:21.633Z,325
2017-01-28T12:50:19.602Z,320
2017-01-28T12:51:19.912Z,325
2017-01-28T12:52:19.790Z,330
2017-01-28T12:53:20.403Z,330
2017-01-28T12:54:20.018Z,335
2017-01-28T12:55:20.685Z,330
2017-01-28T12:56:20.128Z,330
2017-01-28T12:57:19.617Z,320
2017-01-28T12:58:19.985Z,320
2017-01-28T12:59:21.816Z,315
2017-01-28T13:00:20.198Z,310
2017-01-28T13:01:20.624Z,315
2017-01-28T13:02:20.263Z,320
2017-01-28T13:03:20.056Z,325
2017-01-28T13:04:22.362Z,330
2017-01-28T13:05:21.187Z,330
2017-01-28T13:06:19.361Z,330
2017-01-28T13:07:20.769Z,330
2017-01-28T13:08:21.758Z,330
2017-01-28T13:09:21.609Z,335
2017-01-28T13:10:20.735Z,330
2017-01-28T13:11:20.375Z,330
2017-01-28T13:12:21.981Z,330
2017-01-28T13:13:20.129Z,335
2017-01-28T13:14:19.574Z,325
2017-01-28T13:15:20.879Z,325
2017-01-28T13:16:21.208Z,320
2017-01-28T13:17:22.754Z,320
2017-01-28T13:18:21.295Z,320
2017-01-28T13:19:21.462Z,320
2017-01-28T13:20:20.464Z,320
2017-01-28T13:21:22.141Z,320
2017-01-28T13:22:21.177Z,325
2017-01-28T13:23:22.511Z,320
2017-01-28T13:24:21.674Z,325
2017-01-28T13:25:21.875Z,330
2017-01-28T13:26:22.627Z,330
2017-01-28T13:27:19.882Z,330
2017-01-28T13:28:20.183Z,335
2017-01-28T13:29:23.660Z,335
2017-01-28T13:30:21.997Z,340
2017-01-28T13:31:22.510Z,340
2017-01-28T13:32:21.164Z,340
2017-01-28T13:33:20.976Z,340
2017-01-28T13:34:20.817Z,335
2017-01-28T13:35:20.498Z,335
2017-01-28T13:36:20.594Z,335
2017-01-28T13:37:20.324Z,330
2017-01-28T13:38:22.294Z,335
2017-01-28T13:39:21.468Z,340
2017-01-28T13:40:20.499Z,345
2017-01-28T13:41:21.231Z,355
2017-01-28T13:42:21.862Z,355
2017-01-28T13:43:22.496Z,355
2017-01-28T13:44:22.823Z,355
2017-01-28T13:45:20.702Z,355
2017-01-28T13:46:21.172Z,355
2017-01-28T13:47:20.362Z,360
2017-01-28T13:48:21.851Z,365
2017-01-28T13:49:21.364Z,370
2017-01-28T13:50:22.261Z,370
2017-01-28T13:51:21.811Z,370
2017-01-28T13:52:21.619Z,370
2017-01-28T13:53:21.331Z,365
2017-01-28T13:54:21.696Z,370
2017-01-28T13:55:23.407Z,370
2017-01-28T13:56:22.314Z,370
2017-01-28T13:57:22.532Z,365
2017-01-28T13:58:23.716Z,365
2017-01-28T13:59:22.107Z,360
2017-01-28T14:00:20.787Z,360
2017-01-28T14:01:22.606Z,360
2017-01-28T14:02:20.432Z,355
2017-01-28T14:03:22.304Z,355
2017-01-28T14:04:21.892Z,355
2017-01-28T14:05:22.913Z,350
2017-01-28T14:06:23.836Z,350
2017-01-28T14:07:22.984Z,350
2017-01-28T14:08:21.098Z,345
2017-01-28T14:09:21.821Z,345
2017-01-28T14:10:21.751Z,345
2017-01-28T14:11:20.971Z,340
2017-01-28T14:12:22.464Z,335
2017-01-28T14:13:22.288Z,330
2017-01-28T14:14:21.083Z,325
2017-01-28T14:15:20.943Z,320
2017-01-28T14:16:22.588Z,315